createdAt,value
2023-04-02T00:00:45.963Z,0.00
2023-04-02T00:01:45.978Z,0.00
2023-04-02T00:02:45.992Z,0.00
2023-04-02T00:03:46.035Z,0.00
2023-04-02T00:04:45.962Z,0.00
2023-04-02T00:05:45.887Z,0.00
2023-04-02T00:06:45.914Z,0.00
2023-04-02T00:07:45.894Z,0.00
2023-04-02T00:08:45.873Z,0.00
2023-04-02T00:09:45.871Z,0.00
2023-04-02T00:10:45.840Z,0.00
2023-04-02T00:11:45.853Z,0.00
2023-04-02T00:12:45.837Z,0.00
2023-04-02T00:13:45.816Z,0.00
2023-04-02T00:14:45.861Z,0.00
2023-04-02T00:15:45.804Z,0.00
2023-04-02T00:16:45.805Z,0.00
2023-04-02T00:17:45.799Z,0.00
2023-04-02T00:18:45.785Z,0.00
2023-04-02T00:19:45.806Z,0.00
2023-04-02T00:20:45.747Z,0.00
2023-04-02T00:21:45.735Z,0.00
2023-04-02T00:22:45.745Z,0.00
2023-04-02T00:23:45.738Z,0.00
2023-04-02T00:24:46.073Z,0.00
2023-04-02T00:25:45.843Z,0.00
2023-04-02T00:26:45.720Z,0.00
2023-04-02T00:27:45.676Z,0.00
2023-04-02T00:28:45.692Z,0.00
2023-04-02T00:29:45.651Z,0.00
2023-04-02T00:30:45.662Z,0.00
2023-04-02T00:31:45.683Z,0.00
2023-04-02T00:32:45.694Z,0.00
2023-04-02T00:33:45.612Z,0.00
2023-04-02T00:34:45.611Z,0.00
2023-04-02T00:35:45.613Z,0.00
2023-04-02T00:36:45.568Z,0.00
2023-04-02T00:37:45.563Z,0.00
2023-04-02T00:38:47.415Z,0.00
2023-04-02T00:39:45.542Z,0.00
2023-04-02T00:40:45.528Z,0.00
2023-04-02T00:41:45.519Z,0.00
2023-04-02T00:42:45.504Z,0.00
2023-04-02T00:43:45.511Z,0.00
2023-04-02T00:44:45.490Z,0.00
2023-04-02T00:45:45.511Z,0.00
2023-04-02T00:46:45.486Z,0.00
2023-04-02T00:47:45.508Z,0.00
2023-04-02T00:48:45.461Z,0.00
2023-04-02T00:49:45.432Z,0.00
2023-04-02T00:50:45.446Z,0.00
2023-04-02T00:51:45.405Z,0.00
2023-04-02T00:52:45.416Z,0.00
2023-04-02T00:53:45.387Z,0.00
2023-04-02T00:54:45.393Z,0.00
2023-04-02T00:55:45.451Z,0.00
2023-04-02T00:56:45.358Z,0.00
2023-04-02T00:57:45.358Z,0.00
2023-04-02T00:58:45.361Z,0.00
2023-04-02T00:59:45.370Z,0.00
2023-04-02T01:00:45.333Z,0.00
2023-04-02T01:01:45.430Z,0.00
2023-04-02T01:02:45.371Z,0.00
2023-04-02T01:03:45.406Z,0.00
2023-04-02T01:04:45.271Z,0.00
2023-04-02T01:05:45.260Z,0.00
2023-04-02T01:06:45.277Z,0.00
2023-04-02T01:07:45.233Z,0.00
2023-04-02T01:08:45.257Z,0.00
2023-04-02T01:09:45.213Z,0.00
2023-04-02T01:10:45.251Z,0.00
2023-04-02T01:11:45.196Z,0.00
2023-04-02T01:12:45.204Z,0.00
2023-04-02T01:13:45.192Z,0.00
2023-04-02T01:14:45.171Z,0.00
2023-04-02T01:15:45.212Z,0.00
2023-04-02T01:16:45.143Z,0.00
2023-04-02T01:17:45.239Z,0.00
2023-04-02T01:18:45.138Z,0.00
2023-04-02T01:19:45.103Z,0.00
2023-04-02T01:20:45.118Z,0.00
2023-04-02T01:21:45.091Z,0.00
2023-04-02T01:22:45.070Z,0.00
2023-04-02T01:23:45.077Z,0.00
2023-04-02T01:24:45.053Z,0.00
2023-04-02T01:25:45.064Z,0.00
2023-04-02T01:26:45.260Z,0.00
2023-04-02T01:27:45.031Z,0.00
2023-04-02T01:28:45.030Z,0.00
2023-04-02T01:29:45.002Z,0.00
2023-04-02T01:30:44.994Z,0.00
2023-04-02T01:31:45.246Z,0.00
2023-04-02T01:32:45.046Z,0.00
2023-04-02T01:33:44.985Z,0.00
2023-04-02T01:34:44.953Z,0.00
2023-04-02T01:35:44.959Z,0.00
2023-04-02T01:36:44.967Z,0.00
2023-04-02T01:37:44.976Z,0.00
2023-04-02T01:38:44.905Z,0.00
2023-04-02T01:39:44.890Z,0.00
2023-04-02T01:40:44.900Z,0.00
2023-04-02T01:41:44.893Z,0.00
2023-04-02T01:42:44.897Z,0.00
2023-04-02T01:43:44.855Z,0.00
2023-04-02T01:44:44.867Z,0.00
2023-04-02T01:45:44.839Z,0.00
2023-04-02T01:46:44.922Z,0.00
2023-04-02T01:47:44.872Z,0.00
2023-04-02T01:48:44.816Z,0.00
2023-04-02T01:49:44.796Z,0.00
2023-04-02T01:50:44.781Z,0.00
2023-04-02T01:51:44.769Z,0.00
2023-04-02T01:52:44.748Z,0.00
2023-04-02T01:53:44.762Z,0.00
2023-04-02T01:54:44.731Z,0.00
2023-04-02T01:55:44.733Z,0.00
2023-04-02T01:56:44.702Z,0.00
2023-04-02T01:57:44.757Z,0.00
2023-04-02T01:58:44.677Z,0.00
2023-04-02T01:59:44.682Z,0.00
2023-04-02T02:00:44.714Z,0.00
2023-04-02T02:01:44.694Z,0.00
2023-04-02T02:02:44.696Z,0.00
2023-04-02T02:03:44.627Z,0.00
2023-04-02T02:04:44.629Z,0.00
2023-04-02T02:05:44.623Z,0.00
2023-04-02T02:06:44.598Z,0.00
2023-04-02T02:07:44.593Z,0.00
2023-04-02T02:08:44.625Z,0.00
2023-04-02T02:09:44.577Z,0.00
2023-04-02T02:10:44.560Z,0.00
2023-04-02T02:11:44.567Z,0.00
2023-04-02T02:12:44.556Z,0.00
2023-04-02T02:13:44.534Z,0.00
2023-04-02T02:14:44.533Z,0.00
2023-04-02T02:15:44.547Z,0.00
2023-04-02T02:16:44.592Z,0.00
2023-04-02T02:17:44.506Z,0.00
2023-04-02T02:18:44.468Z,0.00
2023-04-02T02:19:44.464Z,0.00
2023-04-02T02:20:44.476Z,0.00
2023-04-02T02:21:44.469Z,0.00
2023-04-02T02:22:44.434Z,0.00
2023-04-02T02:23:44.438Z,0.00
2023-04-02T02:24:44.426Z,0.00
2023-04-02T02:25:44.428Z,0.00
2023-04-02T02:26:44.383Z,0.00
2023-04-02T02:27:44.394Z,0.00
2023-04-02T02:28:44.722Z,0.00
2023-04-02T02:29:44.360Z,0.00
2023-04-02T02:30:44.343Z,0.00
2023-04-02T02:31:44.385Z,0.00
2023-04-02T02:32:44.401Z,0.00
2023-04-02T02:33:44.361Z,0.00
2023-04-02T02:34:44.321Z,0.00
2023-04-02T02:35:44.375Z,0.00
2023-04-02T02:36:52.840Z,0.00
2023-04-02T02:37:52.798Z,0.00
2023-04-02T02:38:44.277Z,0.00
2023-04-02T02:39:44.278Z,0.00
2023-04-02T02:40:44.235Z,0.00
2023-04-02T02:41:44.253Z,0.00
2023-04-02T02:42:44.213Z,0.00
2023-04-02T02:43:44.224Z,0.00
2023-04-02T02:44:44.201Z,0.00
2023-04-02T02:45:44.270Z,0.00
2023-04-02T02:46:44.175Z,0.00
2023-04-02T02:47:44.210Z,0.00
2023-04-02T02:48:44.183Z,0.00
2023-04-02T02:49:44.154Z,0.00
2023-04-02T02:50:44.156Z,0.00
2023-04-02T02:51:44.129Z,0.00
2023-04-02T02:52:44.094Z,0.00
2023-04-02T02:53:44.113Z,0.00
2023-04-02T02:54:44.112Z,0.00
2023-04-02T02:55:44.086Z,0.00
2023-04-02T02:56:44.073Z,0.00
2023-04-02T02:57:44.091Z,0.00
2023-04-02T02:58:44.053Z,0.00
2023-04-02T02:59:44.094Z,0.00
2023-04-02T03:00:44.040Z,0.00
2023-04-02T03:01:44.093Z,0.00
2023-04-02T03:02:44.105Z,0.00
2023-04-02T03:03:44.277Z,0.00
2023-04-02T03:04:43.970Z,0.00
2023-04-02T03:05:43.998Z,0.00
2023-04-02T03:06:43.961Z,0.00
2023-04-02T03:07:43.955Z,0.00
2023-04-02T03:08:43.958Z,0.00
2023-04-02T03:09:43.966Z,0.00
2023-04-02T03:10:43.924Z,0.00
2023-04-02T03:11:43.906Z,0.00
2023-04-02T03:12:43.891Z,0.00
2023-04-02T03:13:43.921Z,0.00
2023-04-02T03:14:43.860Z,0.00
2023-04-02T03:15:43.938Z,0.00
2023-04-02T03:16:43.846Z,0.00
2023-04-02T03:17:43.906Z,0.00
2023-04-02T03:18:43.845Z,0.00
2023-04-02T03:19:43.842Z,0.00
2023-04-02T03:20:43.820Z,0.00
2023-04-02T03:21:43.817Z,0.00
2023-04-02T03:22:43.811Z,0.00
2023-04-02T03:23:43.814Z,0.00
2023-04-02T03:24:43.773Z,0.00
2023-04-02T03:25:43.805Z,0.00
2023-04-02T03:26:43.768Z,0.00
2023-04-02T03:27:43.773Z,0.00
2023-04-02T03:28:43.737Z,0.00
2023-04-02T03:29:43.745Z,0.00
2023-04-02T03:30:43.818Z,0.00
2023-04-02T03:31:43.773Z,0.00
2023-04-02T03:32:43.760Z,0.00
2023-04-02T03:33:43.703Z,0.00
2023-04-02T03:34:43.678Z,0.00
2023-04-02T03:35:43.699Z,0.00
2023-04-02T03:36:43.680Z,0.00
2023-04-02T03:37:43.662Z,0.00
2023-04-02T03:38:43.667Z,0.00
2023-04-02T03:39:43.630Z,0.00
2023-04-02T03:40:43.633Z,0.00
2023-04-02T03:41:43.624Z,0.00
2023-04-02T03:42:43.607Z,0.00
2023-04-02T03:43:43.592Z,0.00
2023-04-02T03:44:43.580Z,0.00
2023-04-02T03:45:43.557Z,0.00
2023-04-02T03:46:52.171Z,0.00
2023-04-02T03:47:43.574Z,0.00
2023-04-02T03:48:43.534Z,0.00
2023-04-02T03:49:43.534Z,0.00
2023-04-02T03:50:52.021Z,0.00
2023-04-02T03:51:53.063Z,0.00
2023-04-02T03:52:43.488Z,0.00
2023-04-02T03:53:52.035Z,0.00
2023-04-02T03:54:54.254Z,0.00
2023-04-02T03:55:44.466Z,0.00
2023-04-02T03:56:51.986Z,0.00
2023-04-02T03:57:43.443Z,0.00
2023-04-02T03:58:43.425Z,0.00
2023-04-02T03:59:43.410Z,0.00
2023-04-02T04:00:43.414Z,0.00
2023-04-02T04:01:53.532Z,0.00
2023-04-02T04:02:43.386Z,0.00
2023-04-02T04:03:52.045Z,0.00
2023-04-02T04:04:43.343Z,0.00
2023-04-02T04:05:51.907Z,0.00
2023-04-02T04:06:43.323Z,0.00
2023-04-02T04:07:43.347Z,0.00
2023-04-02T04:08:43.318Z,0.00
2023-04-02T04:09:43.329Z,0.00
2023-04-02T04:10:43.320Z,0.00
2023-04-02T04:11:43.331Z,0.00
2023-04-02T04:12:43.287Z,0.00
2023-04-02T04:13:43.281Z,0.00
2023-04-02T04:14:45.174Z,0.00
2023-04-02T04:15:43.260Z,0.00
2023-04-02T04:16:43.276Z,0.00
2023-04-02T04:17:43.332Z,0.00
2023-04-02T04:18:43.221Z,0.00
2023-04-02T04:19:43.219Z,0.00
2023-04-02T04:20:43.189Z,0.00
2023-04-02T04:21:43.200Z,0.00
2023-04-02T04:22:43.195Z,0.00
2023-04-02T04:23:43.197Z,0.00
2023-04-02T04:24:43.143Z,0.00
2023-04-02T04:25:43.157Z,0.00
2023-04-02T04:26:43.147Z,0.00
2023-04-02T04:27:43.153Z,0.00
2023-04-02T04:28:43.120Z,0.00
2023-04-02T04:29:43.117Z,0.00
2023-04-02T04:30:43.100Z,0.00
2023-04-02T04:31:43.146Z,0.00
2023-04-02T04:32:43.238Z,4.00
2023-04-02T04:33:43.075Z,0.00
2023-04-02T04:34:43.059Z,0.00
2023-04-02T04:35:43.081Z,4.00
2023-04-02T04:36:43.027Z,0.00
2023-04-02T04:37:43.463Z,4.00
2023-04-02T04:38:43.028Z,4.00
2023-04-02T04:39:43.022Z,4.00
2023-04-02T04:40:42.990Z,8.00
2023-04-02T04:41:42.993Z,8.00
2023-04-02T04:42:43.002Z,8.00
2023-04-02T04:43:42.968Z,8.00
2023-04-02T04:44:42.991Z,8.00
2023-04-02T04:45:42.975Z,8.00
2023-04-02T04:46:42.927Z,12.00
2023-04-02T04:47:42.946Z,12.00
2023-04-02T04:48:42.907Z,16.00
2023-04-02T04:49:42.946Z,16.00
2023-04-02T04:50:42.887Z,20.00
2023-04-02T04:51:42.882Z,24.00
2023-04-02T04:52:42.866Z,28.00
2023-04-02T04:53:42.868Z,28.00
2023-04-02T04:54:42.848Z,36.00
2023-04-02T04:55:42.863Z,36.00
2023-04-02T04:56:42.805Z,44.00
2023-04-02T04:57:42.821Z,48.00
2023-04-02T04:58:42.798Z,56.00
2023-04-02T04:59:42.826Z,60.00
2023-04-02T05:00:42.780Z,68.00
2023-04-02T05:01:42.873Z,76.00
2023-04-02T05:02:42.800Z,84.00
2023-04-02T05:03:42.829Z,88.00
2023-04-02T05:04:42.767Z,100.00
2023-04-02T05:05:42.735Z,108.00
2023-04-02T05:06:42.706Z,120.00
2023-04-02T05:07:42.752Z,128.00
2023-04-02T05:08:42.690Z,140.00
2023-04-02T05:09:42.703Z,148.00
2023-04-02T05:10:42.676Z,160.00
2023-04-02T05:11:42.722Z,176.00
2023-04-02T05:12:42.670Z,192.00
2023-04-02T05:13:42.640Z,200.00
2023-04-02T05:14:42.621Z,212.00
2023-04-02T05:15:42.649Z,224.00
2023-04-02T05:16:42.802Z,236.00
2023-04-02T05:17:42.668Z,256.00
2023-04-02T05:18:42.587Z,264.00
2023-04-02T05:19:42.621Z,284.00
2023-04-02T05:20:42.577Z,308.00
2023-04-02T05:21:42.570Z,336.00
2023-04-02T05:22:42.544Z,364.00
2023-04-02T05:23:42.562Z,376.00
2023-04-02T05:24:42.533Z,400.00
2023-04-02T05:25:42.558Z,408.00
2023-04-02T05:26:42.518Z,432.00
2023-04-02T05:27:42.503Z,456.00
2023-04-02T05:28:42.506Z,484.00
2023-04-02T05:29:42.486Z,532.00
2023-04-02T05:30:42.453Z,548.00
2023-04-02T05:31:42.511Z,576.00
2023-04-02T05:32:42.528Z,592.00
2023-04-02T05:33:42.432Z,604.00
2023-04-02T05:34:42.618Z,620.00
2023-04-02T05:35:42.471Z,652.00
2023-04-02T05:36:42.437Z,672.00
2023-04-02T05:37:42.424Z,680.00
2023-04-02T05:38:42.386Z,716.00
2023-04-02T05:39:42.379Z,728.00
2023-04-02T05:40:42.405Z,748.00
2023-04-02T05:41:42.360Z,756.00
2023-04-02T05:42:42.381Z,752.00
2023-04-02T05:43:42.368Z,768.00
2023-04-02T05:44:42.321Z,812.00
2023-04-02T05:45:42.350Z,844.00
2023-04-02T05:46:42.327Z,872.00
2023-04-02T05:47:42.353Z,920.00
2023-04-02T05:48:42.297Z,1004.00
2023-04-02T05:49:42.305Z,1080.00
2023-04-02T05:50:42.294Z,1124.00
2023-04-02T05:51:42.252Z,1084.00
2023-04-02T05:52:42.251Z,1080.00
2023-04-02T05:53:42.243Z,1076.00
2023-04-02T05:54:42.257Z,1064.00
2023-04-02T05:55:42.230Z,1064.00
2023-04-02T05:56:42.216Z,1108.00
2023-04-02T05:57:49.572Z,1172.00
2023-04-02T05:58:45.473Z,1236.00
2023-04-02T05:59:42.165Z,1296.00
2023-04-02T06:00:42.175Z,1388.00
2023-04-02T06:01:42.212Z,1428.00
2023-04-02T06:02:42.204Z,1476.00
2023-04-02T06:03:42.164Z,1556.00
2023-04-02T06:04:42.123Z,1532.00
2023-04-02T06:05:49.192Z,1500.00
2023-04-02T06:06:42.105Z,1496.00
2023-04-02T06:07:42.104Z,1568.00
2023-04-02T06:08:42.104Z,1576.00
2023-04-02T06:09:42.069Z,1600.00
2023-04-02T06:10:42.073Z,1656.00
2023-04-02T06:11:42.050Z,1716.00
2023-04-02T06:12:42.178Z,1736.00
2023-04-02T06:13:42.020Z,1796.00
2023-04-02T06:14:42.027Z,1880.00
2023-04-02T06:15:41.989Z,1912.00
2023-04-02T06:16:42.039Z,1968.00
2023-04-02T06:17:42.049Z,2016.00
2023-04-02T06:18:41.973Z,1996.00
2023-04-02T06:19:41.960Z,1984.00
2023-04-02T06:20:41.967Z,1956.00
2023-04-02T06:21:41.950Z,1956.00
2023-04-02T06:22:41.924Z,1984.00
2023-04-02T06:23:41.925Z,2024.00
2023-04-02T06:24:41.910Z,2056.00
2023-04-02T06:25:41.894Z,2068.00
2023-04-02T06:26:41.882Z,2044.00
2023-04-02T06:27:41.871Z,2032.00
2023-04-02T06:28:41.867Z,1976.00
2023-04-02T06:29:41.876Z,1992.00
2023-04-02T06:30:41.913Z,2044.00
2023-04-02T06:31:41.829Z,2072.00
2023-04-02T06:32:41.943Z,2092.00
2023-04-02T06:33:41.796Z,2144.00
2023-04-02T06:34:41.822Z,2176.00
2023-04-02T06:35:41.841Z,2220.00
2023-04-02T06:36:41.981Z,2264.00
2023-04-02T06:37:41.799Z,2288.00
2023-04-02T06:38:41.793Z,2300.00
2023-04-02T06:39:41.747Z,2304.00
2023-04-02T06:40:41.762Z,2368.00
2023-04-02T06:41:41.726Z,2424.00
2023-04-02T06:42:41.752Z,2472.00
2023-04-02T06:43:41.706Z,2496.00
2023-04-02T06:44:41.704Z,2524.00
2023-04-02T06:45:41.719Z,2556.00
2023-04-02T06:46:41.699Z,2572.00
2023-04-02T06:47:41.755Z,2636.00
2023-04-02T06:48:41.663Z,2720.00
2023-04-02T06:49:41.664Z,2736.00
2023-04-02T06:50:41.653Z,2776.00
2023-04-02T06:51:41.614Z,2784.00
2023-04-02T06:52:41.630Z,2792.00
2023-04-02T06:53:41.585Z,2852.00
2023-04-02T06:54:41.630Z,2952.00
2023-04-02T06:55:41.583Z,3004.00
2023-04-02T06:56:41.586Z,3104.00
2023-04-02T06:57:43.024Z,3124.00
2023-04-02T06:58:41.565Z,3188.00
2023-04-02T06:59:41.573Z,3220.00
2023-04-02T07:00:41.537Z,3264.00
2023-04-02T07:01:41.549Z,3252.00
2023-04-02T07:02:41.522Z,3256.00
2023-04-02T07:03:41.484Z,3296.00
2023-04-02T07:04:41.577Z,3436.00
2023-04-02T07:05:43.024Z,3500.00
2023-04-02T07:06:41.473Z,3532.00
2023-04-02T07:07:41.577Z,3508.00
2023-04-02T07:08:41.456Z,3568.00
2023-04-02T07:09:41.427Z,3652.00
2023-04-02T07:10:41.431Z,3712.00
2023-04-02T07:11:41.404Z,3752.00
2023-04-02T07:12:41.407Z,3804.00
2023-04-02T07:13:41.381Z,3904.00
2023-04-02T07:14:41.378Z,4036.00
2023-04-02T07:15:41.397Z,4044.00
2023-04-02T07:16:41.366Z,4020.00
2023-04-02T07:17:41.362Z,4096.00
2023-04-02T07:18:41.336Z,4264.00
2023-04-02T07:19:41.312Z,4332.00
2023-04-02T07:20:41.311Z,4376.00
2023-04-02T07:21:41.295Z,4468.00
2023-04-02T07:22:41.306Z,4496.00
2023-04-02T07:23:41.278Z,4552.00
2023-04-02T07:24:41.322Z,4488.00
2023-04-02T07:25:41.292Z,4420.00
2023-04-02T07:26:41.283Z,4376.00
2023-04-02T07:27:41.271Z,4312.00
2023-04-02T07:28:41.274Z,4356.00
2023-04-02T07:29:41.213Z,4336.00
2023-04-02T07:30:41.214Z,4364.00
2023-04-02T07:31:41.223Z,4372.00
2023-04-02T07:32:41.246Z,4324.00
2023-04-02T07:33:42.163Z,4228.00
2023-04-02T07:34:41.174Z,4200.00
2023-04-02T07:35:41.216Z,4212.00
2023-04-02T07:36:41.166Z,4196.00
2023-04-02T07:37:41.176Z,4204.00
2023-04-02T07:38:41.203Z,4256.00
2023-04-02T07:39:41.111Z,4264.00
2023-04-02T07:40:41.119Z,4264.00
2023-04-02T07:41:41.095Z,4236.00
2023-04-02T07:42:41.091Z,4228.00
2023-04-02T07:43:41.056Z,4224.00
2023-04-02T07:44:41.074Z,4212.00
2023-04-02T07:45:41.042Z,4204.00
2023-04-02T07:46:41.119Z,4184.00
2023-04-02T07:47:41.057Z,4204.00
2023-04-02T07:48:41.041Z,4264.00
2023-04-02T07:49:41.017Z,4248.00
2023-04-02T07:50:41.002Z,4208.00
2023-04-02T07:51:40.977Z,4248.00
2023-04-02T07:52:40.984Z,4260.00
2023-04-02T07:53:40.968Z,4240.00
2023-04-02T07:54:40.963Z,4204.00
2023-04-02T07:55:40.930Z,4196.00
2023-04-02T07:56:40.948Z,4212.00
2023-04-02T07:57:40.914Z,4220.00
2023-04-02T07:58:40.923Z,4292.00
2023-04-02T07:59:40.919Z,4408.00
2023-04-02T08:00:40.917Z,4504.00
2023-04-02T08:01:40.971Z,4640.00
2023-04-02T08:02:40.918Z,4708.00
2023-04-02T08:03:40.882Z,4736.00
2023-04-02T08:04:40.861Z,4840.00
2023-04-02T08:05:40.858Z,4984.00
2023-04-02T08:06:40.837Z,5040.00
2023-04-02T08:07:40.810Z,5088.00
2023-04-02T08:08:40.817Z,5232.00
2023-04-02T08:09:40.845Z,5500.00
2023-04-02T08:10:40.796Z,5652.00
2023-04-02T08:11:40.773Z,5748.00
2023-04-02T08:12:40.774Z,5904.00
2023-04-02T08:13:40.758Z,5900.00
2023-04-02T08:14:40.754Z,6004.00
2023-04-02T08:15:40.737Z,6160.00
2023-04-02T08:16:40.762Z,6444.00
2023-04-02T08:17:40.743Z,6700.00
2023-04-02T08:18:40.701Z,6804.00
2023-04-02T08:19:53.675Z,6812.00
2023-04-02T08:20:41.704Z,6680.00
2023-04-02T08:21:40.666Z,6620.00
2023-04-02T08:22:40.677Z,6588.00
2023-04-02T08:23:40.638Z,6604.00
2023-04-02T08:24:40.668Z,6684.00
2023-04-02T08:25:40.636Z,6988.00
2023-04-02T08:26:40.629Z,7084.00
2023-04-02T08:27:40.623Z,7124.00
2023-04-02T08:28:40.621Z,7316.00
2023-04-02T08:29:40.578Z,7496.00
2023-04-02T08:30:40.598Z,7428.00
2023-04-02T08:31:40.565Z,7532.00
2023-04-02T08:32:40.749Z,7556.00
2023-04-02T08:33:40.547Z,7576.00
2023-04-02T08:34:40.560Z,7668.00
2023-04-02T08:35:40.643Z,7748.00
2023-04-02T08:36:40.526Z,7948.00
2023-04-02T08:37:40.497Z,8032.00
2023-04-02T08:38:40.519Z,8028.00
2023-04-02T08:39:40.470Z,8024.00
2023-04-02T08:40:40.606Z,7972.00
2023-04-02T08:41:40.452Z,7904.00
2023-04-02T08:42:40.476Z,7928.00
2023-04-02T08:43:40.464Z,8088.00
2023-04-02T08:44:40.448Z,8116.00
2023-04-02T08:45:40.642Z,8044.00
2023-04-02T08:46:40.410Z,8112.00
2023-04-02T08:47:40.459Z,8284.00
2023-04-02T08:48:42.611Z,8584.00
2023-04-02T08:49:40.572Z,8668.00
2023-04-02T08:50:40.379Z,8644.00
2023-04-02T08:51:40.345Z,8580.00
2023-04-02T08:52:40.581Z,8520.00
2023-04-02T08:53:40.328Z,8584.00
2023-04-02T08:54:40.343Z,8592.00
2023-04-02T08:55:40.305Z,8500.00
2023-04-02T08:56:40.355Z,8320.00
2023-04-02T08:57:40.298Z,8344.00
2023-04-02T08:58:40.903Z,8452.00
2023-04-02T08:59:40.284Z,8384.00
2023-04-02T09:00:40.256Z,8288.00
2023-04-02T09:01:40.318Z,8336.00
2023-04-02T09:02:40.281Z,8440.00
2023-04-02T09:03:40.231Z,8348.00
2023-04-02T09:04:40.277Z,8372.00
2023-04-02T09:05:40.191Z,8388.00
2023-04-02T09:06:40.236Z,8388.00
2023-04-02T09:07:40.193Z,8440.00
2023-04-02T09:08:40.181Z,8636.00
2023-04-02T09:09:40.155Z,8956.00
2023-04-02T09:10:40.178Z,8980.00
2023-04-02T09:11:40.155Z,9232.00
2023-04-02T09:12:42.257Z,9588.00
2023-04-02T09:13:40.125Z,9692.00
2023-04-02T09:14:40.254Z,9680.00
2023-04-02T09:15:40.121Z,10048.00
2023-04-02T09:16:40.107Z,10460.00
2023-04-02T09:17:53.240Z,10516.00
2023-04-02T09:18:41.271Z,10488.00
2023-04-02T09:19:40.055Z,10720.00
2023-04-02T09:20:40.047Z,10676.00
2023-04-02T09:21:40.034Z,10696.00
2023-04-02T09:22:40.054Z,10948.00
2023-04-02T09:23:40.001Z,10656.00
2023-04-02T09:24:40.020Z,10348.00
2023-04-02T09:25:39.990Z,10204.00
2023-04-02T09:26:39.986Z,10128.00
2023-04-02T09:27:39.992Z,9996.00
2023-04-02T09:28:39.973Z,10180.00
2023-04-02T09:29:39.974Z,10328.00
2023-04-02T09:30:39.960Z,10236.00
2023-04-02T09:31:39.950Z,10140.00
2023-04-02T09:32:39.971Z,10124.00
2023-04-02T09:33:39.907Z,9936.00
2023-04-02T09:34:39.933Z,9944.00
2023-04-02T09:35:39.922Z,9980.00
2023-04-02T09:36:39.883Z,10008.00
2023-04-02T09:37:39.857Z,10064.00
2023-04-02T09:38:39.861Z,10236.00
2023-04-02T09:39:39.834Z,10564.00
2023-04-02T09:40:40.544Z,11172.00
2023-04-02T09:41:40.135Z,11452.00
2023-04-02T09:42:39.943Z,12220.00
2023-04-02T09:43:39.813Z,12472.00
2023-04-02T09:44:39.840Z,12444.00
2023-04-02T09:45:39.782Z,11904.00
2023-04-02T09:46:39.826Z,12228.00
2023-04-02T09:47:42.086Z,12540.00
2023-04-02T09:48:39.777Z,12412.00
2023-04-02T09:49:39.739Z,12160.00
2023-04-02T09:50:39.734Z,12152.00
2023-04-02T09:51:39.727Z,11984.00
2023-04-02T09:52:39.731Z,12160.00
2023-04-02T09:53:41.883Z,12964.00
2023-04-02T09:54:39.729Z,13436.00
2023-04-02T09:55:39.745Z,13552.00
2023-04-02T09:56:39.675Z,13548.00
2023-04-02T09:57:39.643Z,13360.00
2023-04-02T09:58:39.696Z,13220.00
2023-04-02T09:59:39.623Z,13444.00
2023-04-02T10:00:39.742Z,13528.00
2023-04-02T10:01:39.691Z,13564.00
2023-04-02T10:02:39.620Z,13208.00
2023-04-02T10:03:39.594Z,14480.00
2023-04-02T10:04:39.614Z,13940.00
2023-04-02T10:05:41.084Z,13356.00
2023-04-02T10:06:39.537Z,12828.00
2023-04-02T10:07:39.570Z,12568.00
2023-04-02T10:08:39.524Z,12400.00
2023-04-02T10:09:39.535Z,12228.00
2023-04-02T10:10:39.513Z,12240.00
2023-04-02T10:11:46.321Z,12300.00
2023-04-02T10:12:40.545Z,12288.00
2023-04-02T10:13:39.468Z,12080.00
2023-04-02T10:14:39.465Z,12324.00
2023-04-02T10:15:39.455Z,12888.00
2023-04-02T10:16:39.523Z,13092.00
2023-04-02T10:17:39.485Z,12468.00
2023-04-02T10:18:39.417Z,12096.00
2023-04-02T10:19:39.426Z,12360.00
2023-04-02T10:20:50.508Z,12816.00
2023-04-02T10:21:40.424Z,12936.00
2023-04-02T10:22:39.383Z,12980.00
2023-04-02T10:23:39.389Z,13320.00
2023-04-02T10:24:39.348Z,13772.00
2023-04-02T10:25:39.380Z,14024.00
2023-04-02T10:26:39.350Z,14432.00
2023-04-02T10:27:39.332Z,14276.00
2023-04-02T10:28:39.310Z,14196.00
2023-04-02T10:29:39.298Z,13668.00
2023-04-02T10:30:39.351Z,13300.00
2023-04-02T10:31:39.314Z,13336.00
2023-04-02T10:32:39.291Z,14028.00
2023-04-02T10:33:39.265Z,16032.00
2023-04-02T10:34:39.431Z,16288.00
2023-04-02T10:35:39.439Z,15076.00
2023-04-02T10:36:39.228Z,14052.00
2023-04-02T10:37:39.243Z,14388.00
2023-04-02T10:38:39.207Z,14356.00
2023-04-02T10:39:39.222Z,14152.00
2023-04-02T10:40:39.175Z,13680.00
2023-04-02T10:41:39.195Z,13440.00
2023-04-02T10:42:39.159Z,12968.00
2023-04-02T10:43:39.346Z,12424.00
2023-04-02T10:44:39.138Z,12104.00
2023-04-02T10:45:39.116Z,11760.00
2023-04-02T10:46:39.213Z,11680.00
2023-04-02T10:47:39.196Z,12092.00
2023-04-02T10:48:40.074Z,12848.00
2023-04-02T10:49:39.116Z,13572.00
2023-04-02T10:50:39.086Z,13496.00
2023-04-02T10:51:39.078Z,13392.00
2023-04-02T10:52:39.069Z,13456.00
2023-04-02T10:53:39.054Z,14252.00
2023-04-02T10:54:39.023Z,14976.00
2023-04-02T10:55:39.040Z,16000.00
2023-04-02T10:56:50.165Z,19392.00
2023-04-02T10:57:40.117Z,17312.00
2023-04-02T10:58:39.009Z,15648.00
2023-04-02T10:59:38.989Z,14100.00
2023-04-02T11:00:38.973Z,13384.00
2023-04-02T11:01:39.031Z,13444.00
2023-04-02T11:02:39.021Z,14168.00
2023-04-02T11:03:39.071Z,14848.00
2023-04-02T11:04:38.921Z,16768.00
2023-04-02T11:05:38.930Z,16064.00
2023-04-02T11:06:38.916Z,15776.00
2023-04-02T11:07:38.907Z,15584.00
2023-04-02T11:08:38.881Z,16800.00
2023-04-02T11:09:38.876Z,16672.00
2023-04-02T11:10:38.852Z,15872.00
2023-04-02T11:11:38.862Z,15520.00
2023-04-02T11:12:41.526Z,16192.00
2023-04-02T11:13:38.836Z,17056.00
2023-04-02T11:14:38.912Z,17184.00
2023-04-02T11:15:38.835Z,16672.00
2023-04-02T11:16:43.353Z,16224.00
2023-04-02T11:17:39.843Z,16352.00
2023-04-02T11:18:38.853Z,16320.00
2023-04-02T11:19:38.769Z,16160.00
2023-04-02T11:20:38.745Z,16800.00
2023-04-02T11:21:51.082Z,18816.00
2023-04-02T11:22:39.743Z,22880.00
2023-04-02T11:23:38.727Z,20128.00
2023-04-02T11:24:38.959Z,20320.00
2023-04-02T11:25:38.718Z,22176.00
2023-04-02T11:26:38.694Z,23680.00
2023-04-02T11:27:38.712Z,25984.00
2023-04-02T11:28:38.770Z,24928.00
2023-04-02T11:29:38.729Z,24672.00
2023-04-02T11:30:38.654Z,26112.00
2023-04-02T11:31:39.384Z,23616.00
2023-04-02T11:32:38.659Z,54208.00
2023-04-02T11:33:41.370Z,51264.00
2023-04-02T11:34:39.616Z,24896.00
2023-04-02T11:35:38.909Z,23456.00
2023-04-02T11:36:38.606Z,22560.00
2023-04-02T11:37:38.636Z,21856.00
2023-04-02T11:38:38.671Z,22528.00
2023-04-02T11:39:38.579Z,24160.00
2023-04-02T11:40:38.538Z,27776.00
2023-04-02T11:41:38.549Z,35712.00
2023-04-02T11:42:38.550Z,48000.00
2023-04-02T11:43:38.543Z,40128.00
2023-04-02T11:44:38.538Z,60928.00
2023-04-02T11:45:50.141Z,40704.00
2023-04-02T11:46:39.546Z,47520.00
2023-04-02T11:47:38.498Z,48224.00
2023-04-02T11:48:38.463Z,59680.00
2023-04-02T11:49:38.468Z,53504.00
2023-04-02T11:50:38.461Z,23872.00
2023-04-02T11:51:38.437Z,60352.00
2023-04-02T11:52:38.444Z,30048.00
2023-04-02T11:53:38.426Z,70304.00
2023-04-02T11:54:38.392Z,76608.00
2023-04-02T11:55:38.707Z,38784.00
2023-04-02T11:56:38.362Z,27104.00
2023-04-02T11:57:38.429Z,29280.00
2023-04-02T11:58:38.344Z,73376.00
2023-04-02T11:59:38.367Z,35296.00
2023-04-02T12:00:38.414Z,61728.00
2023-04-02T12:01:38.363Z,37088.00
2023-04-02T12:02:38.404Z,40544.00
2023-04-02T12:03:38.362Z,51104.00
2023-04-02T12:04:38.298Z,39296.00
2023-04-02T12:05:38.388Z,30144.00
2023-04-02T12:06:38.291Z,52896.00
2023-04-02T12:07:38.247Z,30848.00
2023-04-02T12:08:50.702Z,27680.00
2023-04-02T12:09:39.247Z,27968.00
2023-04-02T12:10:38.209Z,30464.00
2023-04-02T12:11:38.248Z,31936.00
2023-04-02T12:12:38.209Z,76480.00
2023-04-02T12:13:38.198Z,78016.00
2023-04-02T12:14:38.295Z,56800.00
2023-04-02T12:15:38.164Z,76960.00
2023-04-02T12:16:38.236Z,69312.00
2023-04-02T12:17:38.203Z,20064.00
2023-04-02T12:18:38.130Z,77536.00
2023-04-02T12:19:38.141Z,80800.00
2023-04-02T12:20:38.286Z,79168.00
2023-04-02T12:21:38.099Z,77024.00
2023-04-02T12:22:38.087Z,83072.00
2023-04-02T12:23:38.079Z,79488.00
2023-04-02T12:24:38.061Z,77952.00
2023-04-02T12:25:38.051Z,81664.00
2023-04-02T12:26:38.337Z,84672.00
2023-04-02T12:27:38.057Z,36896.00
2023-04-02T12:28:38.048Z,36640.00